KCHK/CHK METAR and TAF weather

Enter ICAO airport designator
Station Type Date Time Source
KCHK METAR 2020/07/07 09:15 UTC NOAA

KCHK 070915Z AUTO 04005KT 10SM BKN007 OVC010 21/20 A2995 RMK AO2 T02060199


Station Type Date Time Source
KCHK Decoded METAR 2020/07/07 09:15 UTC NOAA

Chickasha, Chickasha Municipal Airport, OK, United States (KCHK) 35-05-46N 097-57-58W
Jul 07, 2020 - 05:15 AM EDT / 2020.07.07 0915 UTC
Wind: from the NE (040 degrees) at 6 MPH (5 KT):0
Visibility: 10 mile(s):0
Sky conditions: overcast
Temperature: 69.1 F (20.6 C)
Dew Point: 67.8 F (19.9 C)
Relative Humidity: 95%
Pressure (altimeter): 29.95 in. Hg (1014 hPa)
ob: KCHK 070915Z AUTO 04005KT 10SM BKN007 OVC010 21/20 A2995 RMK AO2 T02060199
cycle: 9

Station Type Date Time Source
KCHK TAF UTC NOAA

Error!

Example: see airport list